sensor_id;sensor_type;location;lat;lon;timestamp;P1;durP1;ratioP1;P2;durP2;ratioP2
78799;SDS011;68148;55.328;86.106;2023-05-21T00:01:42;5.55;;;1.65;;
78799;SDS011;68148;55.328;86.106;2023-05-21T00:04:08;2.20;;;1.00;;
78799;SDS011;68148;55.328;86.106;2023-05-21T00:06:34;3.65;;;1.95;;
78799;SDS011;68148;55.328;86.106;2023-05-21T00:09:03;3.38;;;1.88;;
78799;SDS011;68148;55.328;86.106;2023-05-21T00:11:29;4.68;;;2.05;;
78799;SDS011;68148;55.328;86.106;2023-05-21T00:13:57;3.63;;;1.40;;
78799;SDS011;68148;55.328;86.106;2023-05-21T00:16:23;2.03;;;1.17;;
78799;SDS011;68148;55.328;86.106;2023-05-21T00:18:51;2.75;;;1.35;;
78799;SDS011;68148;55.328;86.106;2023-05-21T00:21:16;4.60;;;1.70;;
78799;SDS011;68148;55.328;86.106;2023-05-21T00:23:42;5.40;;;1.20;;
78799;SDS011;68148;55.328;86.106;2023-05-21T00:26:08;5.15;;;1.80;;
78799;SDS011;68148;55.328;86.106;2023-05-21T00:28:34;3.83;;;1.63;;
78799;SDS011;68148;55.328;86.106;2023-05-21T00:31:00;5.50;;;1.23;;
78799;SDS011;68148;55.328;86.106;2023-05-21T00:33:25;4.68;;;1.50;;
78799;SDS011;68148;55.328;86.106;2023-05-21T00:35:51;4.20;;;1.42;;
78799;SDS011;68148;55.328;86.106;2023-05-21T00:38:17;5.53;;;1.92;;
78799;SDS011;68148;55.328;86.106;2023-05-21T00:40:43;4.57;;;1.75;;
78799;SDS011;68148;55.328;86.106;2023-05-21T00:43:08;3.53;;;1.02;;
78799;SDS011;68148;55.328;86.106;2023-05-21T00:45:34;7.93;;;1.55;;
78799;SDS011;68148;55.328;86.106;2023-05-21T00:48:00;5.63;;;1.75;;
78799;SDS011;68148;55.328;86.106;2023-05-21T00:50:30;3.92;;;2.08;;
78799;SDS011;68148;55.328;86.106;2023-05-21T00:52:56;3.03;;;1.30;;
78799;SDS011;68148;55.328;86.106;2023-05-21T00:55:22;5.80;;;1.65;;
78799;SDS011;68148;55.328;86.106;2023-05-21T00:57:52;12.05;;;1.55;;
78799;SDS011;68148;55.328;86.106;2023-05-21T01:00:18;4.40;;;1.23;;
78799;SDS011;68148;55.328;86.106;2023-05-21T01:02:43;3.08;;;1.35;;
78799;SDS011;68148;55.328;86.106;2023-05-21T01:05:10;2.28;;;1.35;;
78799;SDS011;68148;55.328;86.106;2023-05-21T01:07:37;6.22;;;1.58;;
78799;SDS011;68148;55.328;86.106;2023-05-21T01:10:05;2.28;;;1.05;;
78799;SDS011;68148;55.328;86.106;2023-05-21T01:12:33;3.17;;;1.52;;
78799;SDS011;68148;55.328;86.106;2023-05-21T01:15:01;1.73;;;1.30;;
78799;SDS011;68148;55.328;86.106;2023-05-21T01:17:27;3.90;;;1.27;;
78799;SDS011;68148;55.328;86.106;2023-05-21T01:19:55;2.80;;;1.00;;
78799;SDS011;68148;55.328;86.106;2023-05-21T01:24:48;3.58;;;1.35;;
78799;SDS011;68148;55.328;86.106;2023-05-21T01:27:14;6.00;;;1.55;;
78799;SDS011;68148;55.328;86.106;2023-05-21T01:29:40;3.05;;;1.05;;
78799;SDS011;68148;55.328;86.106;2023-05-21T01:32:09;2.13;;;1.40;;
78799;SDS011;68148;55.328;86.106;2023-05-21T01:39:56;2.10;;;1.10;;
78799;SDS011;68148;55.328;86.106;2023-05-21T01:42:27;5.22;;;1.10;;
78799;SDS011;68148;55.328;86.106;2023-05-21T01:47:22;11.93;;;1.40;;
78799;SDS011;68148;55.328;86.106;2023-05-21T01:49:49;3.75;;;1.33;;
78799;SDS011;68148;55.328;86.106;2023-05-21T01:52:16;8.25;;;1.45;;
78799;SDS011;68148;55.328;86.106;2023-05-21T01:54:42;1.90;;;1.20;;
78799;SDS011;68148;55.328;86.106;2023-05-21T01:57:08;3.10;;;1.45;;
78799;SDS011;68148;55.328;86.106;2023-05-21T01:59:34;5.55;;;1.30;;
78799;SDS011;68148;55.328;86.106;2023-05-21T02:02:00;5.95;;;1.63;;
78799;SDS011;68148;55.328;86.106;2023-05-21T02:04:26;3.05;;;1.27;;
78799;SDS011;68148;55.328;86.106;2023-05-21T02:06:52;3.72;;;1.50;;
78799;SDS011;68148;55.328;86.106;2023-05-21T02:09:18;3.20;;;1.33;;
78799;SDS011;68148;55.328;86.106;2023-05-21T02:11:44;6.38;;;1.35;;
78799;SDS011;68148;55.328;86.106;2023-05-21T02:14:09;3.30;;;1.40;;
78799;SDS011;68148;55.328;86.106;2023-05-21T02:16:35;2.15;;;0.82;;
78799;SDS011;68148;55.328;86.106;2023-05-21T02:19:01;4.70;;;1.33;;
78799;SDS011;68148;55.328;86.106;2023-05-21T02:21:27;4.65;;;1.58;;
78799;SDS011;68148;55.328;86.106;2023-05-21T02:23:53;3.08;;;1.27;;
78799;SDS011;68148;55.328;86.106;2023-05-21T02:26:19;5.78;;;1.80;;
78799;SDS011;68148;55.328;86.106;2023-05-21T02:28:44;9.38;;;2.08;;
78799;SDS011;68148;55.328;86.106;2023-05-21T02:31:10;3.03;;;1.20;;
78799;SDS011;68148;55.328;86.106;2023-05-21T02:33:38;2.58;;;1.30;;
78799;SDS011;68148;55.328;86.106;2023-05-21T02:36:06;4.10;;;1.50;;
78799;SDS011;68148;55.328;86.106;2023-05-21T02:38:31;6.10;;;1.98;;
78799;SDS011;68148;55.328;86.106;2023-05-21T02:40:57;4.88;;;1.67;;
78799;SDS011;68148;55.328;86.106;2023-05-21T02:43:23;2.55;;;1.40;;
78799;SDS011;68148;55.328;86.106;2023-05-21T02:45:49;5.05;;;1.65;;
78799;SDS011;68148;55.328;86.106;2023-05-21T02:48:15;6.57;;;1.13;;
78799;SDS011;68148;55.328;86.106;2023-05-21T02:50:41;4.10;;;1.40;;
78799;SDS011;68148;55.328;86.106;2023-05-21T02:53:06;5.07;;;2.30;;
78799;SDS011;68148;55.328;86.106;2023-05-21T02:55:32;4.82;;;1.85;;
78799;SDS011;68148;55.328;86.106;2023-05-21T02:57:58;3.08;;;0.98;;
78799;SDS011;68148;55.328;86.106;2023-05-21T03:00:24;6.47;;;1.42;;
78799;SDS011;68148;55.328;86.106;2023-05-21T03:02:50;2.22;;;1.27;;
78799;SDS011;68148;55.328;86.106;2023-05-21T03:05:16;3.17;;;1.25;;
78799;SDS011;68148;55.328;86.106;2023-05-21T03:07:41;5.40;;;1.67;;
78799;SDS011;68148;55.328;86.106;2023-05-21T03:10:08;3.72;;;1.33;;
78799;SDS011;68148;55.328;86.106;2023-05-21T03:12:35;2.58;;;1.90;;
78799;SDS011;68148;55.328;86.106;2023-05-21T03:15:01;6.63;;;1.70;;
78799;SDS011;68148;55.328;86.106;2023-05-21T03:17:27;9.45;;;1.88;;
78799;SDS011;68148;55.328;86.106;2023-05-21T03:19:52;6.85;;;1.70;;
78799;SDS011;68148;55.328;86.106;2023-05-21T03:22:18;6.45;;;1.83;;
78799;SDS011;68148;55.328;86.106;2023-05-21T03:24:44;5.82;;;1.40;;
78799;SDS011;68148;55.328;86.106;2023-05-21T03:27:10;2.63;;;1.42;;
78799;SDS011;68148;55.328;86.106;2023-05-21T03:29:36;5.15;;;2.63;;
78799;SDS011;68148;55.328;86.106;2023-05-21T03:32:03;7.45;;;2.83;;
78799;SDS011;68148;55.328;86.106;2023-05-21T03:34:29;6.75;;;1.30;;
78799;SDS011;68148;55.328;86.106;2023-05-21T03:36:55;3.95;;;1.25;;
78799;SDS011;68148;55.328;86.106;2023-05-21T03:39:21;8.82;;;1.05;;
78799;SDS011;68148;55.328;86.106;2023-05-21T03:41:47;2.67;;;1.13;;
78799;SDS011;68148;55.328;86.106;2023-05-21T03:44:12;8.55;;;1.40;;
78799;SDS011;68148;55.328;86.106;2023-05-21T03:46:38;5.82;;;0.95;;
78799;SDS011;68148;55.328;86.106;2023-05-21T03:49:04;5.03;;;1.25;;
78799;SDS011;68148;55.328;86.106;2023-05-21T03:51:30;4.53;;;1.15;;
78799;SDS011;68148;55.328;86.106;2023-05-21T03:53:57;4.20;;;1.20;;
78799;SDS011;68148;55.328;86.106;2023-05-21T03:56:23;2.45;;;1.05;;
78799;SDS011;68148;55.328;86.106;2023-05-21T03:58:49;4.40;;;1.42;;
78799;SDS011;68148;55.328;86.106;2023-05-21T04:01:15;9.23;;;1.60;;
78799;SDS011;68148;55.328;86.106;2023-05-21T04:03:41;4.47;;;1.40;;
78799;SDS011;68148;55.328;86.106;2023-05-21T04:06:07;5.55;;;1.02;;
78799;SDS011;68148;55.328;86.106;2023-05-21T04:08:33;2.00;;;0.82;;
78799;SDS011;68148;55.328;86.106;2023-05-21T04:10:59;3.00;;;1.25;;
78799;SDS011;68148;55.328;86.106;2023-05-21T04:13:25;5.80;;;1.30;;
78799;SDS011;68148;55.328;86.106;2023-05-21T04:15:51;5.45;;;1.05;;
78799;SDS011;68148;55.328;86.106;2023-05-21T04:18:17;2.25;;;1.30;;
78799;SDS011;68148;55.328;86.106;2023-05-21T04:20:42;4.38;;;1.00;;
78799;SDS011;68148;55.328;86.106;2023-05-21T04:23:08;4.00;;;1.30;;
78799;SDS011;68148;55.328;86.106;2023-05-21T04:25:34;8.50;;;1.50;;
78799;SDS011;68148;55.328;86.106;2023-05-21T04:28:00;4.40;;;1.10;;
78799;SDS011;68148;55.328;86.106;2023-05-21T04:30:26;16.20;;;1.77;;
78799;SDS011;68148;55.328;86.106;2023-05-21T04:32:52;4.78;;;1.10;;
78799;SDS011;68148;55.328;86.106;2023-05-21T04:35:18;5.43;;;1.02;;
78799;SDS011;68148;55.328;86.106;2023-05-21T04:37:44;2.50;;;1.25;;
78799;SDS011;68148;55.328;86.106;2023-05-21T04:40:13;4.72;;;1.42;;
78799;SDS011;68148;55.328;86.106;2023-05-21T04:42:39;5.50;;;1.17;;
78799;SDS011;68148;55.328;86.106;2023-05-21T04:45:05;0.95;;;0.52;;
78799;SDS011;68148;55.328;86.106;2023-05-21T04:47:31;2.70;;;1.33;;
78799;SDS011;68148;55.328;86.106;2023-05-21T04:49:57;2.50;;;0.88;;
78799;SDS011;68148;55.328;86.106;2023-05-21T04:52:23;4.80;;;0.80;;
78799;SDS011;68148;55.328;86.106;2023-05-21T04:54:49;2.17;;;1.13;;
78799;SDS011;68148;55.328;86.106;2023-05-21T04:57:15;3.60;;;1.02;;
78799;SDS011;68148;55.328;86.106;2023-05-21T04:59:41;2.97;;;0.80;;
78799;SDS011;68148;55.328;86.106;2023-05-21T05:02:07;7.47;;;1.00;;
78799;SDS011;68148;55.328;86.106;2023-05-21T05:04:33;2.53;;;0.73;;
78799;SDS011;68148;55.328;86.106;2023-05-21T05:06:59;2.58;;;1.00;;
78799;SDS011;68148;55.328;86.106;2023-05-21T05:09:24;7.68;;;1.02;;
78799;SDS011;68148;55.328;86.106;2023-05-21T05:11:50;7.28;;;0.70;;
78799;SDS011;68148;55.328;86.106;2023-05-21T05:14:16;4.80;;;1.20;;
78799;SDS011;68148;55.328;86.106;2023-05-21T05:16:42;4.80;;;0.85;;
78799;SDS011;68148;55.328;86.106;2023-05-21T05:19:08;2.17;;;1.02;;
78799;SDS011;68148;55.328;86.106;2023-05-21T05:21:33;2.65;;;1.10;;
78799;SDS011;68148;55.328;86.106;2023-05-21T05:23:59;4.38;;;1.13;;
78799;SDS011;68148;55.328;86.106;2023-05-21T05:26:25;2.65;;;0.73;;
78799;SDS011;68148;55.328;86.106;2023-05-21T05:28:51;4.00;;;1.25;;
78799;SDS011;68148;55.328;86.106;2023-05-21T05:31:17;2.13;;;0.93;;
78799;SDS011;68148;55.328;86.106;2023-05-21T05:33:42;1.50;;;1.02;;
78799;SDS011;68148;55.328;86.106;2023-05-21T05:36:08;2.60;;;0.98;;
78799;SDS011;68148;55.328;86.106;2023-05-21T05:38:34;2.67;;;0.90;;
78799;SDS011;68148;55.328;86.106;2023-05-21T05:41:00;6.13;;;1.10;;
78799;SDS011;68148;55.328;86.106;2023-05-21T05:43:26;3.10;;;1.00;;
78799;SDS011;68148;55.328;86.106;2023-05-21T05:45:52;2.15;;;0.88;;
78799;SDS011;68148;55.328;86.106;2023-05-21T05:48:20;7.55;;;0.90;;
78799;SDS011;68148;55.328;86.106;2023-05-21T05:50:46;2.08;;;0.70;;
78799;SDS011;68148;55.328;86.106;2023-05-21T05:53:12;2.35;;;0.57;;
78799;SDS011;68148;55.328;86.106;2023-05-21T05:55:38;5.88;;;0.80;;
78799;SDS011;68148;55.328;86.106;2023-05-21T05:58:05;3.20;;;0.90;;
78799;SDS011;68148;55.328;86.106;2023-05-21T06:00:31;1.77;;;1.08;;
78799;SDS011;68148;55.328;86.106;2023-05-21T06:02:57;5.38;;;1.00;;
78799;SDS011;68148;55.328;86.106;2023-05-21T06:05:22;0.85;;;0.63;;
78799;SDS011;68148;55.328;86.106;2023-05-21T06:07:48;1.30;;;0.70;;
78799;SDS011;68148;55.328;86.106;2023-05-21T06:10:14;1.70;;;0.93;;
78799;SDS011;68148;55.328;86.106;2023-05-21T06:12:40;2.03;;;0.73;;
78799;SDS011;68148;55.328;86.106;2023-05-21T06:15:06;5.18;;;0.90;;
78799;SDS011;68148;55.328;86.106;2023-05-21T06:17:33;2.72;;;1.02;;
78799;SDS011;68148;55.328;86.106;2023-05-21T06:20:00;2.88;;;0.82;;
78799;SDS011;68148;55.328;86.106;2023-05-21T06:22:25;5.80;;;1.27;;
78799;SDS011;68148;55.328;86.106;2023-05-21T06:24:51;3.78;;;0.75;;
78799;SDS011;68148;55.328;86.106;2023-05-21T06:27:17;1.92;;;0.73;;
78799;SDS011;68148;55.328;86.106;2023-05-21T06:29:43;3.08;;;0.88;;
78799;SDS011;68148;55.328;86.106;2023-05-21T06:32:09;2.38;;;1.05;;
78799;SDS011;68148;55.328;86.106;2023-05-21T06:34:35;1.33;;;0.88;;
78799;SDS011;68148;55.328;86.106;2023-05-21T06:37:00;5.13;;;0.70;;
78799;SDS011;68148;55.328;86.106;2023-05-21T06:39:26;3.58;;;1.15;;
78799;SDS011;68148;55.328;86.106;2023-05-21T06:41:52;3.13;;;0.73;;
78799;SDS011;68148;55.328;86.106;2023-05-21T06:44:18;2.30;;;1.25;;
78799;SDS011;68148;55.328;86.106;2023-05-21T06:46:44;9.43;;;1.83;;
78799;SDS011;68148;55.328;86.106;2023-05-21T06:49:10;8.55;;;2.08;;
78799;SDS011;68148;55.328;86.106;2023-05-21T06:51:36;2.83;;;1.45;;
78799;SDS011;68148;55.328;86.106;2023-05-21T06:54:02;6.05;;;1.02;;
78799;SDS011;68148;55.328;86.106;2023-05-21T06:56:28;2.88;;;0.93;;
78799;SDS011;68148;55.328;86.106;2023-05-21T06:58:54;2.42;;;0.80;;
78799;SDS011;68148;55.328;86.106;2023-05-21T07:01:20;2.40;;;0.85;;
78799;SDS011;68148;55.328;86.106;2023-05-21T07:03:47;2.17;;;1.10;;
78799;SDS011;68148;55.328;86.106;2023-05-21T07:06:13;4.95;;;1.00;;
78799;SDS011;68148;55.328;86.106;2023-05-21T07:08:39;8.35;;;1.00;;
78799;SDS011;68148;55.328;86.106;2023-05-21T07:11:05;5.57;;;1.00;;
78799;SDS011;68148;55.328;86.106;2023-05-21T07:13:31;1.98;;;0.75;;
78799;SDS011;68148;55.328;86.106;2023-05-21T07:15:56;1.55;;;0.93;;
78799;SDS011;68148;55.328;86.106;2023-05-21T07:18:22;2.00;;;0.90;;
78799;SDS011;68148;55.328;86.106;2023-05-21T07:20:48;3.75;;;0.90;;
78799;SDS011;68148;55.328;86.106;2023-05-21T07:23:14;4.90;;;0.90;;
78799;SDS011;68148;55.328;86.106;2023-05-21T07:25:41;1.13;;;0.75;;
78799;SDS011;68148;55.328;86.106;2023-05-21T07:28:06;5.80;;;1.30;;
78799;SDS011;68148;55.328;86.106;2023-05-21T07:30:32;10.93;;;1.30;;
78799;SDS011;68148;55.328;86.106;2023-05-21T07:32:58;6.10;;;1.60;;
78799;SDS011;68148;55.328;86.106;2023-05-21T07:35:24;2.53;;;1.00;;
78799;SDS011;68148;55.328;86.106;2023-05-21T07:37:50;2.05;;;1.02;;
78799;SDS011;68148;55.328;86.106;2023-05-21T07:40:15;1.52;;;1.00;;
78799;SDS011;68148;55.328;86.106;2023-05-21T07:42:42;2.08;;;1.30;;
78799;SDS011;68148;55.328;86.106;2023-05-21T07:45:08;1.40;;;0.93;;
78799;SDS011;68148;55.328;86.106;2023-05-21T07:47:34;4.18;;;1.40;;
78799;SDS011;68148;55.328;86.106;2023-05-21T07:49:59;4.53;;;1.52;;
78799;SDS011;68148;55.328;86.106;2023-05-21T07:52:26;5.25;;;1.70;;
78799;SDS011;68148;55.328;86.106;2023-05-21T07:54:52;3.15;;;1.40;;
78799;SDS011;68148;55.328;86.106;2023-05-21T07:57:18;4.05;;;1.30;;
78799;SDS011;68148;55.328;86.106;2023-05-21T07:59:44;2.45;;;1.23;;
78799;SDS011;68148;55.328;86.106;2023-05-21T08:02:10;2.38;;;1.08;;
78799;SDS011;68148;55.328;86.106;2023-05-21T08:04:35;2.75;;;1.05;;
78799;SDS011;68148;55.328;86.106;2023-05-21T08:07:01;5.03;;;0.90;;
78799;SDS011;68148;55.328;86.106;2023-05-21T08:09:27;4.60;;;1.40;;
78799;SDS011;68148;55.328;86.106;2023-05-21T08:11:53;4.28;;;1.85;;
78799;SDS011;68148;55.328;86.106;2023-05-21T08:14:19;1.23;;;0.70;;
78799;SDS011;68148;55.328;86.106;2023-05-21T08:16:45;1.63;;;0.95;;
78799;SDS011;68148;55.328;86.106;2023-05-21T08:19:11;3.67;;;0.98;;
78799;SDS011;68148;55.328;86.106;2023-05-21T08:21:37;2.33;;;1.08;;
78799;SDS011;68148;55.328;86.106;2023-05-21T08:24:02;2.58;;;0.80;;
78799;SDS011;68148;55.328;86.106;2023-05-21T08:26:28;1.30;;;0.80;;
78799;SDS011;68148;55.328;86.106;2023-05-21T08:28:54;1.75;;;0.90;;
78799;SDS011;68148;55.328;86.106;2023-05-21T08:31:20;1.35;;;0.75;;
78799;SDS011;68148;55.328;86.106;2023-05-21T08:33:50;2.05;;;1.08;;
78799;SDS011;68148;55.328;86.106;2023-05-21T08:36:16;3.25;;;0.80;;
78799;SDS011;68148;55.328;86.106;2023-05-21T08:38:42;2.08;;;0.82;;
78799;SDS011;68148;55.328;86.106;2023-05-21T08:41:09;1.08;;;0.68;;
78799;SDS011;68148;55.328;86.106;2023-05-21T08:43:38;5.88;;;1.30;;
78799;SDS011;68148;55.328;86.106;2023-05-21T08:46:05;11.15;;;1.38;;
78799;SDS011;68148;55.328;86.106;2023-05-21T08:48:32;1.00;;;0.77;;
78799;SDS011;68148;55.328;86.106;2023-05-21T08:51:00;2.20;;;1.10;;
78799;SDS011;68148;55.328;86.106;2023-05-21T08:53:27;1.52;;;0.82;;
78799;SDS011;68148;55.328;86.106;2023-05-21T08:55:53;2.70;;;1.05;;
78799;SDS011;68148;55.328;86.106;2023-05-21T08:58:22;1.83;;;1.02;;
78799;SDS011;68148;55.328;86.106;2023-05-21T09:00:48;5.28;;;0.75;;
78799;SDS011;68148;55.328;86.106;2023-05-21T09:03:14;2.88;;;0.82;;
78799;SDS011;68148;55.328;86.106;2023-05-21T09:05:42;8.60;;;0.98;;
78799;SDS011;68148;55.328;86.106;2023-05-21T09:08:18;5.13;;;1.30;;
78799;SDS011;68148;55.328;86.106;2023-05-21T09:10:49;4.53;;;1.27;;
78799;SDS011;68148;55.328;86.106;2023-05-21T09:13:16;1.73;;;1.00;;
78799;SDS011;68148;55.328;86.106;2023-05-21T09:15:43;1.65;;;0.85;;
78799;SDS011;68148;55.328;86.106;2023-05-21T09:18:09;3.20;;;0.85;;
78799;SDS011;68148;55.328;86.106;2023-05-21T09:20:35;1.48;;;0.50;;
78799;SDS011;68148;55.328;86.106;2023-05-21T09:23:02;8.25;;;1.10;;
78799;SDS011;68148;55.328;86.106;2023-05-21T09:25:29;2.28;;;0.82;;
78799;SDS011;68148;55.328;86.106;2023-05-21T09:27:55;3.08;;;0.65;;
78799;SDS011;68148;55.328;86.106;2023-05-21T09:30:22;3.08;;;0.80;;
78799;SDS011;68148;55.328;86.106;2023-05-21T09:32:52;3.85;;;0.73;;
78799;SDS011;68148;55.328;86.106;2023-05-21T09:35:22;4.43;;;1.05;;
78799;SDS011;68148;55.328;86.106;2023-05-21T09:37:49;2.92;;;0.73;;
78799;SDS011;68148;55.328;86.106;2023-05-21T09:40:19;12.68;;;2.15;;
78799;SDS011;68148;55.328;86.106;2023-05-21T09:45:17;2.33;;;1.10;;
78799;SDS011;68148;55.328;86.106;2023-05-21T09:47:50;7.55;;;1.33;;
78799;SDS011;68148;55.328;86.106;2023-05-21T09:50:18;3.88;;;1.00;;
78799;SDS011;68148;55.328;86.106;2023-05-21T09:52:48;1.83;;;1.65;;
78799;SDS011;68148;55.328;86.106;2023-05-21T09:55:15;4.65;;;0.90;;
78799;SDS011;68148;55.328;86.106;2023-05-21T09:57:42;2.47;;;0.90;;
78799;SDS011;68148;55.328;86.106;2023-05-21T10:00:15;3.78;;;1.20;;
78799;SDS011;68148;55.328;86.106;2023-05-21T10:02:54;5.85;;;1.08;;
78799;SDS011;68148;55.328;86.106;2023-05-21T10:05:20;1.63;;;0.73;;
78799;SDS011;68148;55.328;86.106;2023-05-21T10:07:51;4.20;;;0.73;;
78799;SDS011;68148;55.328;86.106;2023-05-21T10:10:20;4.30;;;0.93;;
78799;SDS011;68148;55.328;86.106;2023-05-21T10:12:47;2.65;;;0.80;;
78799;SDS011;68148;55.328;86.106;2023-05-21T10:15:26;2.10;;;1.13;;
78799;SDS011;68148;55.328;86.106;2023-05-21T10:17:56;2.20;;;0.82;;
78799;SDS011;68148;55.328;86.106;2023-05-21T10:20:23;3.97;;;1.10;;
78799;SDS011;68148;55.328;86.106;2023-05-21T10:22:50;3.08;;;1.30;;
78799;SDS011;68148;55.328;86.106;2023-05-21T10:25:22;3.40;;;1.20;;
78799;SDS011;68148;55.328;86.106;2023-05-21T10:27:52;4.85;;;1.52;;
78799;SDS011;68148;55.328;86.106;2023-05-21T10:30:20;5.32;;;1.80;;
78799;SDS011;68148;55.328;86.106;2023-05-21T10:32:49;2.75;;;0.95;;
78799;SDS011;68148;55.328;86.106;2023-05-21T10:35:16;4.90;;;2.08;;
78799;SDS011;68148;55.328;86.106;2023-05-21T10:37:43;8.57;;;2.33;;
78799;SDS011;68148;55.328;86.106;2023-05-21T10:40:11;3.20;;;1.27;;
78799;SDS011;68148;55.328;86.106;2023-05-21T10:51:17;2.88;;;1.65;;
78799;SDS011;68148;55.328;86.106;2023-05-21T10:53:53;3.85;;;1.48;;
78799;SDS011;68148;55.328;86.106;2023-05-21T11:02:10;5.22;;;1.70;;
78799;SDS011;68148;55.328;86.106;2023-05-21T11:04:39;3.40;;;1.52;;
78799;SDS011;68148;55.328;86.106;2023-05-21T11:07:05;7.90;;;2.33;;
78799;SDS011;68148;55.328;86.106;2023-05-21T11:09:31;3.28;;;1.63;;
78799;SDS011;68148;55.328;86.106;2023-05-21T11:11:57;7.03;;;2.70;;
78799;SDS011;68148;55.328;86.106;2023-05-21T11:14:36;9.23;;;1.67;;
78799;SDS011;68148;55.328;86.106;2023-05-21T11:17:35;5.78;;;1.38;;
78799;SDS011;68148;55.328;86.106;2023-05-21T11:20:05;5.38;;;1.42;;
78799;SDS011;68148;55.328;86.106;2023-05-21T11:22:35;9.27;;;1.15;;
78799;SDS011;68148;55.328;86.106;2023-05-21T11:25:01;5.82;;;1.48;;
78799;SDS011;68148;55.328;86.106;2023-05-21T11:27:40;4.28;;;1.33;;
78799;SDS011;68148;55.328;86.106;2023-05-21T11:30:24;7.82;;;1.38;;
78799;SDS011;68148;55.328;86.106;2023-05-21T11:35:37;5.25;;;1.90;;
78799;SDS011;68148;55.328;86.106;2023-05-21T11:38:12;4.07;;;1.60;;
78799;SDS011;68148;55.328;86.106;2023-05-21T11:40:48;8.75;;;1.50;;
78799;SDS011;68148;55.328;86.106;2023-05-21T11:43:17;2.50;;;1.45;;
78799;SDS011;68148;55.328;86.106;2023-05-21T11:45:42;3.85;;;1.55;;
78799;SDS011;68148;55.328;86.106;2023-05-21T11:48:11;5.25;;;1.17;;
78799;SDS011;68148;55.328;86.106;2023-05-21T11:50:38;4.97;;;1.50;;
78799;SDS011;68148;55.328;86.106;2023-05-21T11:53:04;6.50;;;1.83;;
78799;SDS011;68148;55.328;86.106;2023-05-21T11:55:29;5.10;;;1.55;;
78799;SDS011;68148;55.328;86.106;2023-05-21T11:57:55;6.03;;;1.30;;
78799;SDS011;68148;55.328;86.106;2023-05-21T12:00:23;2.72;;;1.45;;
78799;SDS011;68148;55.328;86.106;2023-05-21T12:02:49;4.07;;;1.65;;
78799;SDS011;68148;55.328;86.106;2023-05-21T12:05:16;7.00;;;1.60;;
78799;SDS011;68148;55.328;86.106;2023-05-21T12:07:44;5.78;;;1.48;;
78799;SDS011;68148;55.328;86.106;2023-05-21T12:10:11;9.30;;;1.83;;
78799;SDS011;68148;55.328;86.106;2023-05-21T12:12:37;6.53;;;1.60;;
78799;SDS011;68148;55.328;86.106;2023-05-21T12:15:03;6.93;;;1.90;;
78799;SDS011;68148;55.328;86.106;2023-05-21T12:17:29;2.88;;;1.48;;
78799;SDS011;68148;55.328;86.106;2023-05-21T12:19:55;10.88;;;2.03;;
78799;SDS011;68148;55.328;86.106;2023-05-21T12:22:23;10.27;;;2.05;;
78799;SDS011;68148;55.328;86.106;2023-05-21T12:24:50;4.35;;;1.70;;
78799;SDS011;68148;55.328;86.106;2023-05-21T12:27:16;3.17;;;1.75;;
78799;SDS011;68148;55.328;86.106;2023-05-21T12:29:42;6.20;;;1.80;;
78799;SDS011;68148;55.328;86.106;2023-05-21T12:32:10;15.00;;;4.18;;
78799;SDS011;68148;55.328;86.106;2023-05-21T12:37:30;7.53;;;2.40;;
78799;SDS011;68148;55.328;86.106;2023-05-21T12:39:57;9.63;;;2.22;;
78799;SDS011;68148;55.328;86.106;2023-05-21T12:42:24;9.00;;;2.65;;
78799;SDS011;68148;55.328;86.106;2023-05-21T12:44:53;11.27;;;2.95;;
78799;SDS011;68148;55.328;86.106;2023-05-21T12:47:21;13.38;;;4.03;;
78799;SDS011;68148;55.328;86.106;2023-05-21T12:49:48;5.30;;;2.17;;
78799;SDS011;68148;55.328;86.106;2023-05-21T12:52:17;16.38;;;3.20;;
78799;SDS011;68148;55.328;86.106;2023-05-21T12:54:44;6.63;;;1.60;;
78799;SDS011;68148;55.328;86.106;2023-05-21T12:59:50;8.82;;;1.75;;
78799;SDS011;68148;55.328;86.106;2023-05-21T13:02:30;7.75;;;1.52;;
78799;SDS011;68148;55.328;86.106;2023-05-21T13:04:58;6.57;;;2.10;;
78799;SDS011;68148;55.328;86.106;2023-05-21T13:07:28;4.55;;;1.73;;
78799;SDS011;68148;55.328;86.106;2023-05-21T13:09:55;6.60;;;1.92;;
78799;SDS011;68148;55.328;86.106;2023-05-21T13:12:23;4.20;;;1.90;;
78799;SDS011;68148;55.328;86.106;2023-05-21T13:14:50;6.80;;;2.13;;
78799;SDS011;68148;55.328;86.106;2023-05-21T13:17:17;4.45;;;1.85;;
78799;SDS011;68148;55.328;86.106;2023-05-21T13:22:28;5.03;;;1.27;;
78799;SDS011;68148;55.328;86.106;2023-05-21T13:24:54;4.55;;;1.95;;
78799;SDS011;68148;55.328;86.106;2023-05-21T13:27:20;5.05;;;2.08;;
78799;SDS011;68148;55.328;86.106;2023-05-21T13:29:46;9.95;;;3.65;;
78799;SDS011;68148;55.328;86.106;2023-05-21T13:32:12;10.20;;;2.63;;
78799;SDS011;68148;55.328;86.106;2023-05-21T13:34:37;16.48;;;3.30;;
78799;SDS011;68148;55.328;86.106;2023-05-21T13:37:03;13.25;;;5.10;;
78799;SDS011;68148;55.328;86.106;2023-05-21T13:39:29;12.68;;;4.20;;
78799;SDS011;68148;55.328;86.106;2023-05-21T13:41:55;11.55;;;3.75;;
78799;SDS011;68148;55.328;86.106;2023-05-21T13:44:20;14.32;;;2.53;;
78799;SDS011;68148;55.328;86.106;2023-05-21T13:46:46;14.98;;;4.57;;
78799;SDS011;68148;55.328;86.106;2023-05-21T13:49:12;18.85;;;5.18;;
78799;SDS011;68148;55.328;86.106;2023-05-21T13:51:38;36.88;;;6.03;;
78799;SDS011;68148;55.328;86.106;2023-05-21T13:54:04;10.32;;;3.72;;
78799;SDS011;68148;55.328;86.106;2023-05-21T13:56:30;24.70;;;5.65;;
78799;SDS011;68148;55.328;86.106;2023-05-21T13:58:56;18.65;;;4.90;;
78799;SDS011;68148;55.328;86.106;2023-05-21T14:01:22;25.40;;;8.27;;
78799;SDS011;68148;55.328;86.106;2023-05-21T14:03:48;16.05;;;6.68;;
78799;SDS011;68148;55.328;86.106;2023-05-21T14:06:14;33.22;;;10.85;;
78799;SDS011;68148;55.328;86.106;2023-05-21T14:08:40;38.95;;;10.48;;
78799;SDS011;68148;55.328;86.106;2023-05-21T14:11:06;31.23;;;9.57;;
78799;SDS011;68148;55.328;86.106;2023-05-21T14:13:33;30.73;;;12.02;;
78799;SDS011;68148;55.328;86.106;2023-05-21T14:15:58;40.65;;;14.85;;
78799;SDS011;68148;55.328;86.106;2023-05-21T14:18:24;46.60;;;17.20;;
78799;SDS011;68148;55.328;86.106;2023-05-21T14:20:51;41.92;;;16.73;;
78799;SDS011;68148;55.328;86.106;2023-05-21T14:23:18;58.65;;;19.10;;
78799;SDS011;68148;55.328;86.106;2023-05-21T14:25:44;74.93;;;18.05;;
78799;SDS011;68148;55.328;86.106;2023-05-21T14:28:10;68.03;;;17.65;;
78799;SDS011;68148;55.328;86.106;2023-05-21T14:30:36;49.10;;;12.82;;
78799;SDS011;68148;55.328;86.106;2023-05-21T14:35:29;68.68;;;18.38;;
78799;SDS011;68148;55.328;86.106;2023-05-21T14:37:55;105.57;;;21.52;;
78799;SDS011;68148;55.328;86.106;2023-05-21T14:40:21;59.42;;;15.45;;
78799;SDS011;68148;55.328;86.106;2023-05-21T14:42:47;75.00;;;16.58;;
78799;SDS011;68148;55.328;86.106;2023-05-21T14:45:14;93.45;;;18.13;;
78799;SDS011;68148;55.328;86.106;2023-05-21T14:47:40;78.50;;;16.63;;
78799;SDS011;68148;55.328;86.106;2023-05-21T14:50:06;80.13;;;17.85;;
78799;SDS011;68148;55.328;86.106;2023-05-21T14:54:59;85.63;;;15.40;;
78799;SDS011;68148;55.328;86.106;2023-05-21T14:57:24;94.53;;;16.13;;
78799;SDS011;68148;55.328;86.106;2023-05-21T14:59:50;70.00;;;15.88;;
78799;SDS011;68148;55.328;86.106;2023-05-21T15:02:16;103.75;;;16.83;;
78799;SDS011;68148;55.328;86.106;2023-05-21T15:04:41;101.80;;;15.52;;
78799;SDS011;68148;55.328;86.106;2023-05-21T15:07:07;56.67;;;12.15;;
78799;SDS011;68148;55.328;86.106;2023-05-21T15:09:33;72.05;;;13.95;;
78799;SDS011;68148;55.328;86.106;2023-05-21T15:11:59;44.90;;;12.90;;